Meridian Naval Air Station
KNMM : now visible

Airfield :











YOU CAN JOIN US ON...

 
LOGIN :

Register | Disclaimer

   EN    FR    IT 

 









Legend :    VFR   Marginal VFR   IFR   Intensive IFR   Very Intensive IFR
Visi :
Ceiling :
>= 8 km
>= 3000ft
5 to 8 km
1000 to 3000 ft
1500m to 5 km
500 to 1000 ft
800 to 1500m
200 to 500 ft
< 800m
< 200 ft
Symbols :   Thunderstorms  Fog  Heavy snow  Heavy precipitations  Wind > 20 kt






- Airport Elevation : 316 ft


KNMM - Meridian Naval Air Station

CURRENT METAR :
  • 221256Z 17003KT 10SM BKN180 14/13 A3005 RMK AO2 SLP187 T01440133

EXPIRED METARs :
  • 221156Z 15003KT 10SM OVC150 14/13 A3005 RMK AO2 SLP186 T01440133 10150 20122 56006
  • 221056Z AUTO 19003KT 10SM CLR 14/13 A3006 RMK AO2 SLP189 T01440133

TAF TAF KNMM
Valid from the 22 at 07:00 until the 23 at 07:00 UTC


2207/2307 18005KT 9999 SCT120 BKN250 QNH3004INS
FM221100 19005KT 9999 VCSH FEW020 BKN035 OVC100 621306 542409 543308 QNH3001INS
TEMPO 2211/2216 8000 -SHRA BKN020 OVC100
FM221700 21008KT 9999 VCSH SCT015 BKN025 OVC080 621306 542409 543308 QNH2995INS
FM222200 20007KT 8000 -RA BR BKN010 OVC018 651207 542409 523308 QNH2993INS
TEMPO 2302/2307 3200 SHRA OVC010 AUTOMATED SENSOR METWATCH 2207 TIL 2212 T12/2212Z T21/2218Z FN00221



MET'MAP, your aeronautical weather chart ! - Copyright ORBIFLY December 2007 - Disclaimer

ORBIFLY MET'MAP TEAM :

Programming & Development : Alexandra Zaïnal
Concept & Development : Baudouin d'Aumeries
Co-Development & Prog : Marc-Olivier Méhu
Technical & hardware support : Manuel Goepfert

Contact : metmap@orbifly.com




SOURCES & CREDITS :

   NOAA       Earth
Advisory